Time Latitude Longitude Accuracy (66% radius in meters) Altitude (meters) Speed (km/hour) Bearing (degrees) Battery (%) GPS flag
09:43:35 44.559009 38.197401 6 90.907727319243 0.066136226058006 93.402816772461 76 1 delete
09:43:23 44.559022 38.197378 8 91.415730336723 0.17727483808994 181.08865356445 76 1 delete
09:43:14 44.559033 38.197390 8 91.763209318078 0.31991985440254 181.08865356445 76 1 delete
09:43:02 44.559038 38.197405 16 93.756887508058 0.23670662939548 62.151584625244 76 1 delete
09:42:50 44.559027 38.197413 8 95.922544480686 0.04873139038682 17.167640686035 76 1 delete
09:42:38 44.559026 38.197391 12 96.181993316788 0.2058902233839 17.167640686035 76 1 delete
09:42:29 44.558989 38.197422 12 97.175990836668 0.54823035001755 322.08013916016 76 1 delete
09:42:23 44.559007 38.197487 8 97.754765503706 2.4364075660706 203.69715881348 76 1 delete
09:42:20 44.559077 38.197532 6 98.340251013848 2.4246318340302 191.68632507324 76 1 delete
09:42:17 44.559144 38.197565 6 98.742178378167 2.3147933483124 202.45057678223 76 1 delete
09:42:14 44.559218 38.197622 8 98.977813254116 2.4193258285522 191.03132629395 76 1 delete
09:42:11 44.559281 38.197638 8 99.230548635899 2.6288950443268 196.49159240723 76 1 delete
09:42:08 44.559350 38.197657 6 99.580800206437 2.7386291027069 187.36601257324 76 1 delete
09:42:05 44.559426 38.197690 8 100.12533522118 2.7208063602448 172.8342590332 76 1 delete
09:42:02 44.559490 38.197709 8 100.83516714082 2.7873194217682 178.11253356934 76 1 delete
09:41:59 44.559569 38.197750 8 101.61149330561 2.7547132968903 193.67895507812 76 1 delete
09:41:56 44.559667 38.197818 8 102.52106320488 2.5327997207642 208.73155212402 76 1 delete
09:41:53 44.559752 38.197893 8 103.40250091405 2.25408244133 220.78048706055 76 1 delete
09:41:50 44.559839 38.197986 8 104.16133482805 1.9022842645645 208.70133972168 76 1 delete
09:41:47 44.559957 38.198080 8 104.88691513681 1.5796165466309 211.2108001709 76 1 delete
09:41:44 44.560054 38.198133 8 105.63704483898 1.2639293670654 199.5391998291 76 1 delete
09:41:38 44.560088 38.198133 8 107.12497579515 1.3318244218826 147.72337341309 76 1 delete
09:41:35 44.560096 38.198161 8 107.84129623662 0.47117057442665 236.07373046875 76 1 delete
09:41:20 44.560099 38.198205 12 110.84353372788 0.46610295772552 251.55438232422 76 1 delete
09:41:14 44.560097 38.198234 12 111.81294335641 0.13993436098099 216.53392028809 76 1 delete
09:41:08 44.560104 38.198279 16 112.29264061132 0.69139349460602 272.30328369141 76 1 delete
09:41:05 44.560104 38.198298 12 112.89907815682 0.40303483605385 267.24697875977 76 1 delete
09:40:59 44.560141 38.198358 8 113.59683862492 0.78755015134811 210.04418945312 76 1 delete
09:40:56 44.560181 38.198402 8 113.87287406072 0.68424010276794 202.71520996094 76 1 delete
09:40:44 44.560201 38.198479 12 113.75139054172 0.83307754993439 11.620295524597 76 1 delete
09:40:35 44.560154 38.198525 8 115.24943533586 0.54192638397217 307.17886352539 76 1 delete
09:40:32 44.560136 38.198555 8 115.75328903438 0.57274299860001 294.4248046875 76 1 delete
09:40:26 44.560128 38.198600 8 116.7212258766 0.7743661403656 304.52713012695 76 1 delete
09:40:23 44.560113 38.198652 6 117.23743794469 0.46110558509827 9.6198425292969 76 1 delete
09:40:14 44.560116 38.198676 8 118.03566843901 0.54864722490311 265.3935546875 76 1 delete
09:40:11 44.560129 38.198688 12 118.23256157151 0.24144057929516 268.03662109375 76 1 delete
09:40:02 44.560163 38.198702 6 118.09797158168 0.87235337495804 240.37995910645 76 1 delete
09:39:59 44.560191 38.198747 8 118.10714294858 0.46896061301231 275.75930786133 76 1 delete
09:39:56 44.560211 38.198772 8 118.13526790342 0.78189760446548 230.23040771484 76 1 delete
09:39:50 44.560254 38.198835 8 118.29304548388 0.78026312589645 235.1340637207 76 1 delete
09:39:47 44.560272 38.198861 12 118.53213391479 0.23387779295444 195.82450866699 76 1 delete
09:39:35 44.560277 38.198916 8 119.71586501539 0.32739719748497 179.3618927002 76 1 delete
09:39:23 44.560271 38.198958 12 120.72407314093 0.581802546978 247.49371337891 76 1 delete
09:39:20 44.560276 38.198991 6 120.85601134234 0.73738175630569 278.86602783203 76 1 delete
09:39:14 44.560298 38.199095 6 120.81374397827 0.71895736455917 283.28549194336 76 1 delete
09:39:11 44.560304 38.199129 8 120.93956629229 0.73788684606552 294.48876953125 76 1 delete
09:39:08 44.560299 38.199161 8 121.26226271878 0.63548690080643 276.00653076172 76 1 delete
09:38:59 44.560328 38.199211 12 121.44834602086 0.62182474136353 216.10636901855 76 1 delete
09:38:53 44.560375 38.199237 6 121.18399911389 0.71325010061264 232.77638244629 76 1 delete
09:38:50 44.560385 38.199243 8 121.00011151142 0.74801164865494 220.7912902832 76 1 delete